sensor_id;sensor_type;location;lat;lon;timestamp;P1;durP1;ratioP1;P2;durP2;ratioP2
65717;SDS011;52445;52.466;-1.016;2023-07-29T00:01:22;4.00;;;0.98;;
65717;SDS011;52445;52.466;-1.016;2023-07-29T00:03:48;2.72;;;0.88;;
65717;SDS011;52445;52.466;-1.016;2023-07-29T00:06:15;1.45;;;0.47;;
65717;SDS011;52445;52.466;-1.016;2023-07-29T00:08:42;2.30;;;0.82;;
65717;SDS011;52445;52.466;-1.016;2023-07-29T00:11:08;2.35;;;0.85;;
65717;SDS011;52445;52.466;-1.016;2023-07-29T00:13:35;1.55;;;1.10;;
65717;SDS011;52445;52.466;-1.016;2023-07-29T00:16:02;1.33;;;0.63;;
65717;SDS011;52445;52.466;-1.016;2023-07-29T00:18:28;2.70;;;1.10;;
65717;SDS011;52445;52.466;-1.016;2023-07-29T00:20:55;1.55;;;0.70;;
65717;SDS011;52445;52.466;-1.016;2023-07-29T00:23:22;1.42;;;0.88;;
65717;SDS011;52445;52.466;-1.016;2023-07-29T00:25:49;4.13;;;1.77;;
65717;SDS011;52445;52.466;-1.016;2023-07-29T00:28:19;3.08;;;0.95;;
65717;SDS011;52445;52.466;-1.016;2023-07-29T00:30:49;1.23;;;0.43;;
65717;SDS011;52445;52.466;-1.016;2023-07-29T00:33:16;2.72;;;1.02;;
65717;SDS011;52445;52.466;-1.016;2023-07-29T00:35:42;2.15;;;1.25;;
65717;SDS011;52445;52.466;-1.016;2023-07-29T00:38:09;2.20;;;0.50;;
65717;SDS011;52445;52.466;-1.016;2023-07-29T00:40:36;1.88;;;0.50;;
65717;SDS011;52445;52.466;-1.016;2023-07-29T00:43:03;2.97;;;0.80;;
65717;SDS011;52445;52.466;-1.016;2023-07-29T00:45:30;2.50;;;1.00;;
65717;SDS011;52445;52.466;-1.016;2023-07-29T00:47:59;2.50;;;1.15;;
65717;SDS011;52445;52.466;-1.016;2023-07-29T00:50:26;2.20;;;0.47;;
65717;SDS011;52445;52.466;-1.016;2023-07-29T00:52:55;2.45;;;0.80;;
65717;SDS011;52445;52.466;-1.016;2023-07-29T00:55:23;1.35;;;0.70;;
65717;SDS011;52445;52.466;-1.016;2023-07-29T00:57:51;1.55;;;0.90;;
65717;SDS011;52445;52.466;-1.016;2023-07-29T01:00:20;4.00;;;0.68;;
65717;SDS011;52445;52.466;-1.016;2023-07-29T01:02:48;4.90;;;1.23;;
65717;SDS011;52445;52.466;-1.016;2023-07-29T01:05:19;3.45;;;0.90;;
65717;SDS011;52445;52.466;-1.016;2023-07-29T01:08:01;2.15;;;0.52;;
65717;SDS011;52445;52.466;-1.016;2023-07-29T01:16:17;6.60;;;1.90;;
65717;SDS011;52445;52.466;-1.016;2023-07-29T01:18:50;2.88;;;1.65;;
65717;SDS011;52445;52.466;-1.016;2023-07-29T01:21:20;4.20;;;2.35;;
65717;SDS011;52445;52.466;-1.016;2023-07-29T01:23:51;4.10;;;2.17;;
65717;SDS011;52445;52.466;-1.016;2023-07-29T01:26:19;1.95;;;1.02;;
65717;SDS011;52445;52.466;-1.016;2023-07-29T01:28:46;4.13;;;2.85;;
65717;SDS011;52445;52.466;-1.016;2023-07-29T01:31:16;2.83;;;1.05;;
65717;SDS011;52445;52.466;-1.016;2023-07-29T01:33:55;3.88;;;2.28;;
65717;SDS011;52445;52.466;-1.016;2023-07-29T01:36:26;3.55;;;1.75;;
65717;SDS011;52445;52.466;-1.016;2023-07-29T01:38:56;3.45;;;1.92;;
65717;SDS011;52445;52.466;-1.016;2023-07-29T01:41:24;2.10;;;1.83;;
65717;SDS011;52445;52.466;-1.016;2023-07-29T01:43:51;5.18;;;2.15;;
65717;SDS011;52445;52.466;-1.016;2023-07-29T01:46:19;3.60;;;0.95;;
65717;SDS011;52445;52.466;-1.016;2023-07-29T01:48:46;6.15;;;1.70;;
65717;SDS011;52445;52.466;-1.016;2023-07-29T01:51:13;2.45;;;1.80;;
65717;SDS011;52445;52.466;-1.016;2023-07-29T01:53:40;4.25;;;2.28;;
65717;SDS011;52445;52.466;-1.016;2023-07-29T01:56:06;3.42;;;2.15;;
65717;SDS011;52445;52.466;-1.016;2023-07-29T01:58:33;5.10;;;2.50;;
65717;SDS011;52445;52.466;-1.016;2023-07-29T02:01:00;3.55;;;2.53;;
65717;SDS011;52445;52.466;-1.016;2023-07-29T02:03:26;7.40;;;2.60;;
65717;SDS011;52445;52.466;-1.016;2023-07-29T02:05:53;3.40;;;2.38;;
65717;SDS011;52445;52.466;-1.016;2023-07-29T02:08:20;6.72;;;2.25;;
65717;SDS011;52445;52.466;-1.016;2023-07-29T02:10:46;2.40;;;2.15;;
65717;SDS011;52445;52.466;-1.016;2023-07-29T02:13:15;5.07;;;0.70;;
65717;SDS011;52445;52.466;-1.016;2023-07-29T02:15:41;3.15;;;2.33;;
65717;SDS011;52445;52.466;-1.016;2023-07-29T02:18:08;4.75;;;2.20;;
65717;SDS011;52445;52.466;-1.016;2023-07-29T02:20:35;4.15;;;2.22;;
65717;SDS011;52445;52.466;-1.016;2023-07-29T02:23:02;3.95;;;2.50;;
65717;SDS011;52445;52.466;-1.016;2023-07-29T02:25:28;5.18;;;2.47;;
65717;SDS011;52445;52.466;-1.016;2023-07-29T02:27:55;4.03;;;2.53;;
65717;SDS011;52445;52.466;-1.016;2023-07-29T02:30:21;5.18;;;2.13;;
65717;SDS011;52445;52.466;-1.016;2023-07-29T02:32:48;6.30;;;2.72;;
65717;SDS011;52445;52.466;-1.016;2023-07-29T02:35:15;4.30;;;2.35;;
65717;SDS011;52445;52.466;-1.016;2023-07-29T02:37:42;6.60;;;2.47;;
65717;SDS011;52445;52.466;-1.016;2023-07-29T02:40:08;5.15;;;2.28;;
65717;SDS011;52445;52.466;-1.016;2023-07-29T02:42:35;4.40;;;2.28;;
65717;SDS011;52445;52.466;-1.016;2023-07-29T02:45:02;3.67;;;2.45;;
65717;SDS011;52445;52.466;-1.016;2023-07-29T02:47:29;5.45;;;1.60;;
65717;SDS011;52445;52.466;-1.016;2023-07-29T02:49:56;3.15;;;2.17;;
65717;SDS011;52445;52.466;-1.016;2023-07-29T02:52:22;4.93;;;2.78;;
65717;SDS011;52445;52.466;-1.016;2023-07-29T02:54:49;4.80;;;2.45;;
65717;SDS011;52445;52.466;-1.016;2023-07-29T02:57:16;3.95;;;2.47;;
65717;SDS011;52445;52.466;-1.016;2023-07-29T02:59:43;4.97;;;2.17;;
65717;SDS011;52445;52.466;-1.016;2023-07-29T03:02:10;6.65;;;2.65;;
65717;SDS011;52445;52.466;-1.016;2023-07-29T03:04:37;3.65;;;2.20;;
65717;SDS011;52445;52.466;-1.016;2023-07-29T03:07:04;3.28;;;2.97;;
65717;SDS011;52445;52.466;-1.016;2023-07-29T03:09:30;4.45;;;2.90;;
65717;SDS011;52445;52.466;-1.016;2023-07-29T03:11:57;8.18;;;2.45;;
65717;SDS011;52445;52.466;-1.016;2023-07-29T03:14:24;6.03;;;3.35;;
65717;SDS011;52445;52.466;-1.016;2023-07-29T03:16:51;3.65;;;2.75;;
65717;SDS011;52445;52.466;-1.016;2023-07-29T03:19:18;4.60;;;2.65;;
65717;SDS011;52445;52.466;-1.016;2023-07-29T03:21:45;3.97;;;2.80;;
65717;SDS011;52445;52.466;-1.016;2023-07-29T03:24:12;5.10;;;3.17;;
65717;SDS011;52445;52.466;-1.016;2023-07-29T03:26:38;3.92;;;2.85;;
65717;SDS011;52445;52.466;-1.016;2023-07-29T03:29:07;3.10;;;2.53;;
65717;SDS011;52445;52.466;-1.016;2023-07-29T03:31:34;3.63;;;3.17;;
65717;SDS011;52445;52.466;-1.016;2023-07-29T03:34:00;4.20;;;2.40;;
65717;SDS011;52445;52.466;-1.016;2023-07-29T03:36:27;4.70;;;3.10;;
65717;SDS011;52445;52.466;-1.016;2023-07-29T03:38:53;3.72;;;2.80;;
65717;SDS011;52445;52.466;-1.016;2023-07-29T03:41:20;4.68;;;2.53;;
65717;SDS011;52445;52.466;-1.016;2023-07-29T03:43:47;4.53;;;2.47;;
65717;SDS011;52445;52.466;-1.016;2023-07-29T03:46:14;8.35;;;2.72;;
65717;SDS011;52445;52.466;-1.016;2023-07-29T03:48:44;7.53;;;3.05;;
65717;SDS011;52445;52.466;-1.016;2023-07-29T03:51:11;5.70;;;3.33;;
65717;SDS011;52445;52.466;-1.016;2023-07-29T03:53:37;3.92;;;2.90;;
65717;SDS011;52445;52.466;-1.016;2023-07-29T03:56:04;5.28;;;2.40;;
65717;SDS011;52445;52.466;-1.016;2023-07-29T03:58:30;3.88;;;2.53;;
65717;SDS011;52445;52.466;-1.016;2023-07-29T04:00:57;6.47;;;2.70;;
65717;SDS011;52445;52.466;-1.016;2023-07-29T04:03:24;5.13;;;3.13;;
65717;SDS011;52445;52.466;-1.016;2023-07-29T04:05:51;5.63;;;3.25;;
65717;SDS011;52445;52.466;-1.016;2023-07-29T04:08:18;4.03;;;2.70;;
65717;SDS011;52445;52.466;-1.016;2023-07-29T04:10:45;4.88;;;2.72;;
65717;SDS011;52445;52.466;-1.016;2023-07-29T04:13:12;4.47;;;0.93;;
65717;SDS011;52445;52.466;-1.016;2023-07-29T04:15:39;5.70;;;2.78;;
65717;SDS011;52445;52.466;-1.016;2023-07-29T04:18:05;8.60;;;2.85;;
65717;SDS011;52445;52.466;-1.016;2023-07-29T04:20:32;3.70;;;2.47;;
65717;SDS011;52445;52.466;-1.016;2023-07-29T04:23:00;2.45;;;2.15;;
65717;SDS011;52445;52.466;-1.016;2023-07-29T04:25:27;4.78;;;2.40;;
65717;SDS011;52445;52.466;-1.016;2023-07-29T04:27:54;6.22;;;3.13;;
65717;SDS011;52445;52.466;-1.016;2023-07-29T04:30:21;5.97;;;2.80;;
65717;SDS011;52445;52.466;-1.016;2023-07-29T04:32:48;3.97;;;2.38;;
65717;SDS011;52445;52.466;-1.016;2023-07-29T04:35:14;5.82;;;2.60;;
65717;SDS011;52445;52.466;-1.016;2023-07-29T04:37:41;3.78;;;2.47;;
65717;SDS011;52445;52.466;-1.016;2023-07-29T04:40:08;3.67;;;2.88;;
65717;SDS011;52445;52.466;-1.016;2023-07-29T04:42:35;5.63;;;2.53;;
65717;SDS011;52445;52.466;-1.016;2023-07-29T04:45:03;5.22;;;2.40;;
65717;SDS011;52445;52.466;-1.016;2023-07-29T04:47:30;5.88;;;2.17;;
65717;SDS011;52445;52.466;-1.016;2023-07-29T04:49:56;2.72;;;2.28;;
65717;SDS011;52445;52.466;-1.016;2023-07-29T04:52:23;7.18;;;2.38;;
65717;SDS011;52445;52.466;-1.016;2023-07-29T04:54:50;4.97;;;2.65;;
65717;SDS011;52445;52.466;-1.016;2023-07-29T04:57:17;4.72;;;2.50;;
65717;SDS011;52445;52.466;-1.016;2023-07-29T04:59:43;5.15;;;2.25;;
65717;SDS011;52445;52.466;-1.016;2023-07-29T05:02:10;6.60;;;2.45;;
65717;SDS011;52445;52.466;-1.016;2023-07-29T05:04:37;4.32;;;2.47;;
65717;SDS011;52445;52.466;-1.016;2023-07-29T05:07:04;4.00;;;2.55;;
65717;SDS011;52445;52.466;-1.016;2023-07-29T05:09:31;2.90;;;2.42;;
65717;SDS011;52445;52.466;-1.016;2023-07-29T05:11:57;5.07;;;2.75;;
65717;SDS011;52445;52.466;-1.016;2023-07-29T05:14:24;3.13;;;2.33;;
65717;SDS011;52445;52.466;-1.016;2023-07-29T05:16:51;3.75;;;2.38;;
65717;SDS011;52445;52.466;-1.016;2023-07-29T05:19:17;4.07;;;2.55;;
65717;SDS011;52445;52.466;-1.016;2023-07-29T05:21:44;4.78;;;2.17;;
65717;SDS011;52445;52.466;-1.016;2023-07-29T05:24:11;5.78;;;3.05;;
65717;SDS011;52445;52.466;-1.016;2023-07-29T05:26:37;5.00;;;2.15;;
65717;SDS011;52445;52.466;-1.016;2023-07-29T05:29:04;3.30;;;2.25;;
65717;SDS011;52445;52.466;-1.016;2023-07-29T05:31:31;5.35;;;2.60;;
65717;SDS011;52445;52.466;-1.016;2023-07-29T05:33:58;8.98;;;2.38;;
65717;SDS011;52445;52.466;-1.016;2023-07-29T05:36:25;6.78;;;2.88;;
65717;SDS011;52445;52.466;-1.016;2023-07-29T05:38:52;5.70;;;2.75;;
65717;SDS011;52445;52.466;-1.016;2023-07-29T05:41:19;4.00;;;2.13;;
65717;SDS011;52445;52.466;-1.016;2023-07-29T05:43:46;9.00;;;2.53;;
65717;SDS011;52445;52.466;-1.016;2023-07-29T05:46:13;3.15;;;2.47;;
65717;SDS011;52445;52.466;-1.016;2023-07-29T05:48:39;4.60;;;2.72;;
65717;SDS011;52445;52.466;-1.016;2023-07-29T05:51:06;9.18;;;2.35;;
65717;SDS011;52445;52.466;-1.016;2023-07-29T05:53:33;4.55;;;2.95;;
65717;SDS011;52445;52.466;-1.016;2023-07-29T05:55:59;7.65;;;3.10;;
65717;SDS011;52445;52.466;-1.016;2023-07-29T05:58:26;5.07;;;2.55;;
65717;SDS011;52445;52.466;-1.016;2023-07-29T06:00:52;5.63;;;2.67;;
65717;SDS011;52445;52.466;-1.016;2023-07-29T06:03:19;6.57;;;3.05;;
65717;SDS011;52445;52.466;-1.016;2023-07-29T06:05:46;5.55;;;2.35;;
65717;SDS011;52445;52.466;-1.016;2023-07-29T06:08:13;4.05;;;2.53;;
65717;SDS011;52445;52.466;-1.016;2023-07-29T06:10:39;3.20;;;2.45;;
65717;SDS011;52445;52.466;-1.016;2023-07-29T06:13:06;3.15;;;2.78;;
65717;SDS011;52445;52.466;-1.016;2023-07-29T06:15:33;3.72;;;1.48;;
65717;SDS011;52445;52.466;-1.016;2023-07-29T06:17:59;2.83;;;2.35;;
65717;SDS011;52445;52.466;-1.016;2023-07-29T06:20:26;8.43;;;2.65;;
65717;SDS011;52445;52.466;-1.016;2023-07-29T06:22:53;4.97;;;2.42;;
65717;SDS011;52445;52.466;-1.016;2023-07-29T06:25:19;3.55;;;2.00;;
65717;SDS011;52445;52.466;-1.016;2023-07-29T06:27:46;3.20;;;2.45;;
65717;SDS011;52445;52.466;-1.016;2023-07-29T06:30:13;3.10;;;2.17;;
65717;SDS011;52445;52.466;-1.016;2023-07-29T06:32:40;7.75;;;2.50;;
65717;SDS011;52445;52.466;-1.016;2023-07-29T06:35:06;4.10;;;2.55;;
65717;SDS011;52445;52.466;-1.016;2023-07-29T06:37:34;5.80;;;2.75;;
65717;SDS011;52445;52.466;-1.016;2023-07-29T06:40:01;4.40;;;2.25;;
65717;SDS011;52445;52.466;-1.016;2023-07-29T06:42:28;7.15;;;3.10;;
65717;SDS011;52445;52.466;-1.016;2023-07-29T06:44:54;3.00;;;2.70;;
65717;SDS011;52445;52.466;-1.016;2023-07-29T06:47:21;6.18;;;2.60;;
65717;SDS011;52445;52.466;-1.016;2023-07-29T06:49:48;9.77;;;2.83;;
65717;SDS011;52445;52.466;-1.016;2023-07-29T06:52:14;5.15;;;2.47;;
65717;SDS011;52445;52.466;-1.016;2023-07-29T06:54:41;4.72;;;2.30;;
65717;SDS011;52445;52.466;-1.016;2023-07-29T06:57:08;3.90;;;2.30;;
65717;SDS011;52445;52.466;-1.016;2023-07-29T06:59:34;6.32;;;2.88;;
65717;SDS011;52445;52.466;-1.016;2023-07-29T07:02:01;5.97;;;2.92;;
65717;SDS011;52445;52.466;-1.016;2023-07-29T07:04:28;4.10;;;3.30;;
65717;SDS011;52445;52.466;-1.016;2023-07-29T07:06:55;5.45;;;2.88;;
65717;SDS011;52445;52.466;-1.016;2023-07-29T07:09:23;4.88;;;3.45;;
65717;SDS011;52445;52.466;-1.016;2023-07-29T07:11:49;6.53;;;3.22;;
65717;SDS011;52445;52.466;-1.016;2023-07-29T07:14:16;5.35;;;2.83;;
65717;SDS011;52445;52.466;-1.016;2023-07-29T07:16:43;3.13;;;2.25;;
65717;SDS011;52445;52.466;-1.016;2023-07-29T07:19:10;5.85;;;3.25;;
65717;SDS011;52445;52.466;-1.016;2023-07-29T07:21:37;4.38;;;2.00;;
65717;SDS011;52445;52.466;-1.016;2023-07-29T07:24:03;4.90;;;1.83;;
65717;SDS011;52445;52.466;-1.016;2023-07-29T07:26:30;5.57;;;2.90;;
65717;SDS011;52445;52.466;-1.016;2023-07-29T07:28:57;3.60;;;2.10;;
65717;SDS011;52445;52.466;-1.016;2023-07-29T07:31:24;3.65;;;2.30;;
65717;SDS011;52445;52.466;-1.016;2023-07-29T07:33:51;7.85;;;2.53;;
65717;SDS011;52445;52.466;-1.016;2023-07-29T07:36:18;6.03;;;2.47;;
65717;SDS011;52445;52.466;-1.016;2023-07-29T07:38:44;5.72;;;2.88;;
65717;SDS011;52445;52.466;-1.016;2023-07-29T07:41:11;3.83;;;2.75;;
65717;SDS011;52445;52.466;-1.016;2023-07-29T07:43:38;3.40;;;2.50;;
65717;SDS011;52445;52.466;-1.016;2023-07-29T07:46:05;3.58;;;2.92;;
65717;SDS011;52445;52.466;-1.016;2023-07-29T07:48:31;5.82;;;2.60;;
65717;SDS011;52445;52.466;-1.016;2023-07-29T07:50:59;4.18;;;2.97;;
65717;SDS011;52445;52.466;-1.016;2023-07-29T07:53:26;3.38;;;2.17;;
65717;SDS011;52445;52.466;-1.016;2023-07-29T07:55:52;3.45;;;2.63;;
65717;SDS011;52445;52.466;-1.016;2023-07-29T07:58:20;4.53;;;3.28;;
65717;SDS011;52445;52.466;-1.016;2023-07-29T08:00:46;3.60;;;2.25;;
65717;SDS011;52445;52.466;-1.016;2023-07-29T08:03:13;5.00;;;2.10;;
65717;SDS011;52445;52.466;-1.016;2023-07-29T08:05:40;4.40;;;3.20;;
65717;SDS011;52445;52.466;-1.016;2023-07-29T08:08:06;4.22;;;2.60;;
65717;SDS011;52445;52.466;-1.016;2023-07-29T08:10:33;5.60;;;3.10;;
65717;SDS011;52445;52.466;-1.016;2023-07-29T08:13:00;4.38;;;0.95;;
65717;SDS011;52445;52.466;-1.016;2023-07-29T08:15:27;4.93;;;2.75;;
65717;SDS011;52445;52.466;-1.016;2023-07-29T08:17:53;2.85;;;2.33;;
65717;SDS011;52445;52.466;-1.016;2023-07-29T08:20:20;4.63;;;3.25;;
65717;SDS011;52445;52.466;-1.016;2023-07-29T08:22:47;4.40;;;2.58;;
65717;SDS011;52445;52.466;-1.016;2023-07-29T08:25:14;3.47;;;2.60;;
65717;SDS011;52445;52.466;-1.016;2023-07-29T08:27:40;4.25;;;2.75;;
65717;SDS011;52445;52.466;-1.016;2023-07-29T08:30:07;3.65;;;2.35;;
65717;SDS011;52445;52.466;-1.016;2023-07-29T08:32:36;2.75;;;2.28;;
65717;SDS011;52445;52.466;-1.016;2023-07-29T08:35:03;2.65;;;2.13;;
65717;SDS011;52445;52.466;-1.016;2023-07-29T08:37:30;3.50;;;2.10;;
65717;SDS011;52445;52.466;-1.016;2023-07-29T08:39:57;4.35;;;2.55;;
65717;SDS011;52445;52.466;-1.016;2023-07-29T08:42:27;3.30;;;2.25;;
65717;SDS011;52445;52.466;-1.016;2023-07-29T08:45:01;3.75;;;2.28;;
65717;SDS011;52445;52.466;-1.016;2023-07-29T08:47:34;3.45;;;2.53;;
65717;SDS011;52445;52.466;-1.016;2023-07-29T08:50:01;4.45;;;3.03;;
65717;SDS011;52445;52.466;-1.016;2023-07-29T08:52:30;5.57;;;2.47;;
65717;SDS011;52445;52.466;-1.016;2023-07-29T08:54:58;2.95;;;1.73;;
65717;SDS011;52445;52.466;-1.016;2023-07-29T08:57:25;6.10;;;2.33;;
65717;SDS011;52445;52.466;-1.016;2023-07-29T08:59:53;3.03;;;2.60;;
65717;SDS011;52445;52.466;-1.016;2023-07-29T09:02:22;3.15;;;1.75;;
65717;SDS011;52445;52.466;-1.016;2023-07-29T09:04:50;2.50;;;2.15;;
65717;SDS011;52445;52.466;-1.016;2023-07-29T09:07:20;2.50;;;2.22;;
65717;SDS011;52445;52.466;-1.016;2023-07-29T09:09:47;2.63;;;1.52;;
65717;SDS011;52445;52.466;-1.016;2023-07-29T09:12:15;3.75;;;2.17;;
65717;SDS011;52445;52.466;-1.016;2023-07-29T09:14:42;2.95;;;2.30;;
65717;SDS011;52445;52.466;-1.016;2023-07-29T09:17:11;6.38;;;2.35;;
65717;SDS011;52445;52.466;-1.016;2023-07-29T09:19:38;2.38;;;1.88;;
65717;SDS011;52445;52.466;-1.016;2023-07-29T09:22:08;7.25;;;2.20;;
65717;SDS011;52445;52.466;-1.016;2023-07-29T09:24:45;4.35;;;2.05;;
65717;SDS011;52445;52.466;-1.016;2023-07-29T09:27:28;7.03;;;2.30;;
65717;SDS011;52445;52.466;-1.016;2023-07-29T09:29:57;6.18;;;1.27;;
65717;SDS011;52445;52.466;-1.016;2023-07-29T09:32:24;2.53;;;1.55;;
65717;SDS011;52445;52.466;-1.016;2023-07-29T09:34:51;2.30;;;2.03;;
65717;SDS011;52445;52.466;-1.016;2023-07-29T09:37:20;3.97;;;2.20;;
65717;SDS011;52445;52.466;-1.016;2023-07-29T09:39:48;4.78;;;1.90;;
65717;SDS011;52445;52.466;-1.016;2023-07-29T09:42:19;3.80;;;1.98;;
65717;SDS011;52445;52.466;-1.016;2023-07-29T09:44:49;3.35;;;2.13;;
65717;SDS011;52445;52.466;-1.016;2023-07-29T09:47:18;2.42;;;2.05;;
65717;SDS011;52445;52.466;-1.016;2023-07-29T09:49:46;3.67;;;0.80;;
65717;SDS011;52445;52.466;-1.016;2023-07-29T09:52:14;3.42;;;2.00;;
65717;SDS011;52445;52.466;-1.016;2023-07-29T09:54:43;3.83;;;2.15;;
65717;SDS011;52445;52.466;-1.016;2023-07-29T09:57:11;4.20;;;2.63;;
65717;SDS011;52445;52.466;-1.016;2023-07-29T09:59:39;2.17;;;1.98;;
65717;SDS011;52445;52.466;-1.016;2023-07-29T10:02:08;4.50;;;2.40;;
65717;SDS011;52445;52.466;-1.016;2023-07-29T10:04:41;3.03;;;2.33;;
65717;SDS011;52445;52.466;-1.016;2023-07-29T10:07:10;5.90;;;2.40;;
65717;SDS011;52445;52.466;-1.016;2023-07-29T10:09:37;3.35;;;2.58;;
65717;SDS011;52445;52.466;-1.016;2023-07-29T10:12:05;2.53;;;2.30;;
65717;SDS011;52445;52.466;-1.016;2023-07-29T10:14:33;4.20;;;2.15;;
65717;SDS011;52445;52.466;-1.016;2023-07-29T10:17:00;3.92;;;1.92;;
65717;SDS011;52445;52.466;-1.016;2023-07-29T10:19:27;4.00;;;2.47;;
65717;SDS011;52445;52.466;-1.016;2023-07-29T10:21:54;4.85;;;2.67;;
65717;SDS011;52445;52.466;-1.016;2023-07-29T10:24:25;4.25;;;2.45;;
65717;SDS011;52445;52.466;-1.016;2023-07-29T10:26:58;6.18;;;2.33;;
65717;SDS011;52445;52.466;-1.016;2023-07-29T10:29:28;4.18;;;2.25;;
65717;SDS011;52445;52.466;-1.016;2023-07-29T10:32:01;2.78;;;1.23;;
65717;SDS011;52445;52.466;-1.016;2023-07-29T10:34:30;5.68;;;2.53;;
65717;SDS011;52445;52.466;-1.016;2023-07-29T10:36:58;3.75;;;1.98;;
65717;SDS011;52445;52.466;-1.016;2023-07-29T10:39:26;3.53;;;2.33;;
65717;SDS011;52445;52.466;-1.016;2023-07-29T10:41:55;3.15;;;2.40;;
65717;SDS011;52445;52.466;-1.016;2023-07-29T10:50:00;1.65;;;0.85;;
65717;SDS011;52445;52.466;-1.016;2023-07-29T11:00:46;3.72;;;2.50;;
65717;SDS011;52445;52.466;-1.016;2023-07-29T11:03:17;3.78;;;2.30;;
65717;SDS011;52445;52.466;-1.016;2023-07-29T11:08:30;5.35;;;2.10;;
65717;SDS011;52445;52.466;-1.016;2023-07-29T11:11:02;2.35;;;1.45;;
65717;SDS011;52445;52.466;-1.016;2023-07-29T11:13:31;4.28;;;1.40;;
65717;SDS011;52445;52.466;-1.016;2023-07-29T11:16:03;2.13;;;0.95;;
65717;SDS011;52445;52.466;-1.016;2023-07-29T11:18:36;2.25;;;1.52;;
65717;SDS011;52445;52.466;-1.016;2023-07-29T11:21:10;3.60;;;2.05;;
65717;SDS011;52445;52.466;-1.016;2023-07-29T11:23:43;4.50;;;2.08;;
65717;SDS011;52445;52.466;-1.016;2023-07-29T11:26:11;5.95;;;1.75;;
65717;SDS011;52445;52.466;-1.016;2023-07-29T11:28:41;2.30;;;1.92;;
65717;SDS011;52445;52.466;-1.016;2023-07-29T11:31:08;2.75;;;1.38;;
65717;SDS011;52445;52.466;-1.016;2023-07-29T11:33:35;5.15;;;2.03;;
65717;SDS011;52445;52.466;-1.016;2023-07-29T11:36:01;2.42;;;1.67;;
65717;SDS011;52445;52.466;-1.016;2023-07-29T11:38:34;3.33;;;1.67;;
65717;SDS011;52445;52.466;-1.016;2023-07-29T11:41:09;3.58;;;1.52;;
65717;SDS011;52445;52.466;-1.016;2023-07-29T11:43:35;4.35;;;1.65;;
65717;SDS011;52445;52.466;-1.016;2023-07-29T11:46:02;3.42;;;2.03;;
65717;SDS011;52445;52.466;-1.016;2023-07-29T11:48:31;2.50;;;1.48;;
65717;SDS011;52445;52.466;-1.016;2023-07-29T11:51:03;3.25;;;1.67;;
65717;SDS011;52445;52.466;-1.016;2023-07-29T11:53:31;2.13;;;1.65;;
65717;SDS011;52445;52.466;-1.016;2023-07-29T11:55:58;2.97;;;1.25;;
65717;SDS011;52445;52.466;-1.016;2023-07-29T11:58:25;3.72;;;1.58;;
65717;SDS011;52445;52.466;-1.016;2023-07-29T12:00:53;4.40;;;1.77;;
65717;SDS011;52445;52.466;-1.016;2023-07-29T12:03:20;2.45;;;1.73;;
65717;SDS011;52445;52.466;-1.016;2023-07-29T12:05:48;5.85;;;1.88;;
65717;SDS011;52445;52.466;-1.016;2023-07-29T12:08:15;3.72;;;1.25;;
65717;SDS011;52445;52.466;-1.016;2023-07-29T12:10:42;2.72;;;1.50;;
65717;SDS011;52445;52.466;-1.016;2023-07-29T12:13:09;4.90;;;1.35;;
65717;SDS011;52445;52.466;-1.016;2023-07-29T12:15:37;2.03;;;1.83;;
65717;SDS011;52445;52.466;-1.016;2023-07-29T12:18:09;5.43;;;1.77;;
65717;SDS011;52445;52.466;-1.016;2023-07-29T12:20:36;2.08;;;1.88;;
65717;SDS011;52445;52.466;-1.016;2023-07-29T12:23:05;3.25;;;1.92;;
65717;SDS011;52445;52.466;-1.016;2023-07-29T12:25:34;2.97;;;1.55;;
65717;SDS011;52445;52.466;-1.016;2023-07-29T12:28:02;5.32;;;1.52;;
65717;SDS011;52445;52.466;-1.016;2023-07-29T12:30:30;4.20;;;1.63;;
65717;SDS011;52445;52.466;-1.016;2023-07-29T12:32:57;2.72;;;2.53;;
65717;SDS011;52445;52.466;-1.016;2023-07-29T12:35:24;6.07;;;2.13;;
65717;SDS011;52445;52.466;-1.016;2023-07-29T12:37:59;3.35;;;1.83;;
65717;SDS011;52445;52.466;-1.016;2023-07-29T12:40:27;3.38;;;1.50;;
65717;SDS011;52445;52.466;-1.016;2023-07-29T12:42:54;3.40;;;2.25;;
65717;SDS011;52445;52.466;-1.016;2023-07-29T12:45:21;5.88;;;1.35;;
65717;SDS011;52445;52.466;-1.016;2023-07-29T12:47:52;4.95;;;1.80;;
65717;SDS011;52445;52.466;-1.016;2023-07-29T12:50:22;5.00;;;1.65;;
65717;SDS011;52445;52.466;-1.016;2023-07-29T12:52:49;3.67;;;1.48;;
65717;SDS011;52445;52.466;-1.016;2023-07-29T12:55:16;4.95;;;1.08;;
65717;SDS011;52445;52.466;-1.016;2023-07-29T12:57:47;4.57;;;2.05;;
65717;SDS011;52445;52.466;-1.016;2023-07-29T13:00:13;3.13;;;1.77;;
65717;SDS011;52445;52.466;-1.016;2023-07-29T13:02:40;3.20;;;1.92;;
65717;SDS011;52445;52.466;-1.016;2023-07-29T13:05:09;4.05;;;1.77;;
65717;SDS011;52445;52.466;-1.016;2023-07-29T13:07:39;4.13;;;2.25;;
65717;SDS011;52445;52.466;-1.016;2023-07-29T13:10:07;2.80;;;1.83;;
65717;SDS011;52445;52.466;-1.016;2023-07-29T13:12:35;2.72;;;1.70;;
65717;SDS011;52445;52.466;-1.016;2023-07-29T13:15:02;3.95;;;1.73;;
65717;SDS011;52445;52.466;-1.016;2023-07-29T13:17:29;3.65;;;2.25;;
65717;SDS011;52445;52.466;-1.016;2023-07-29T13:19:56;4.50;;;1.77;;
65717;SDS011;52445;52.466;-1.016;2023-07-29T13:22:22;2.92;;;1.30;;
65717;SDS011;52445;52.466;-1.016;2023-07-29T13:24:49;2.72;;;1.80;;
65717;SDS011;52445;52.466;-1.016;2023-07-29T13:27:18;3.45;;;1.25;;
65717;SDS011;52445;52.466;-1.016;2023-07-29T13:29:45;5.22;;;2.28;;
65717;SDS011;52445;52.466;-1.016;2023-07-29T13:32:13;4.82;;;1.83;;
65717;SDS011;52445;52.466;-1.016;2023-07-29T13:34:40;2.28;;;0.93;;
65717;SDS011;52445;52.466;-1.016;2023-07-29T13:37:06;3.58;;;2.05;;
65717;SDS011;52445;52.466;-1.016;2023-07-29T13:39:33;10.88;;;2.63;;
65717;SDS011;52445;52.466;-1.016;2023-07-29T13:42:00;4.97;;;1.80;;
65717;SDS011;52445;52.466;-1.016;2023-07-29T13:44:27;4.28;;;1.45;;
65717;SDS011;52445;52.466;-1.016;2023-07-29T13:46:54;4.82;;;2.25;;
65717;SDS011;52445;52.466;-1.016;2023-07-29T13:49:20;4.72;;;1.85;;
65717;SDS011;52445;52.466;-1.016;2023-07-29T13:51:47;3.05;;;1.85;;
65717;SDS011;52445;52.466;-1.016;2023-07-29T13:54:14;6.15;;;1.63;;
65717;SDS011;52445;52.466;-1.016;2023-07-29T13:56:41;2.83;;;0.88;;
65717;SDS011;52445;52.466;-1.016;2023-07-29T13:59:07;3.85;;;2.22;;
65717;SDS011;52445;52.466;-1.016;2023-07-29T14:01:34;2.53;;;1.73;;
65717;SDS011;52445;52.466;-1.016;2023-07-29T14:04:01;5.43;;;2.28;;
65717;SDS011;52445;52.466;-1.016;2023-07-29T14:06:27;5.13;;;1.67;;
65717;SDS011;52445;52.466;-1.016;2023-07-29T14:09:11;3.85;;;1.67;;
65717;SDS011;52445;52.466;-1.016;2023-07-29T14:11:38;4.65;;;1.67;;
65717;SDS011;52445;52.466;-1.016;2023-07-29T14:14:06;5.93;;;1.77;;
65717;SDS011;52445;52.466;-1.016;2023-07-29T14:16:34;4.38;;;1.90;;
65717;SDS011;52445;52.466;-1.016;2023-07-29T14:19:01;4.28;;;1.55;;
65717;SDS011;52445;52.466;-1.016;2023-07-29T14:21:28;5.53;;;2.05;;
65717;SDS011;52445;52.466;-1.016;2023-07-29T14:23:55;1.98;;;1.73;;
65717;SDS011;52445;52.466;-1.016;2023-07-29T14:26:21;5.00;;;1.80;;
65717;SDS011;52445;52.466;-1.016;2023-07-29T14:28:48;4.72;;;1.98;;
65717;SDS011;52445;52.466;-1.016;2023-07-29T14:31:16;2.90;;;2.30;;
65717;SDS011;52445;52.466;-1.016;2023-07-29T14:33:43;2.47;;;1.20;;
65717;SDS011;52445;52.466;-1.016;2023-07-29T14:36:13;2.63;;;1.70;;
65717;SDS011;52445;52.466;-1.016;2023-07-29T14:38:40;2.28;;;1.45;;
65717;SDS011;52445;52.466;-1.016;2023-07-29T14:41:06;3.03;;;1.65;;
65717;SDS011;52445;52.466;-1.016;2023-07-29T14:43:33;4.55;;;1.77;;
65717;SDS011;52445;52.466;-1.016;2023-07-29T14:46:01;2.72;;;1.40;;
65717;SDS011;52445;52.466;-1.016;2023-07-29T14:48:29;2.22;;;1.45;;
65717;SDS011;52445;52.466;-1.016;2023-07-29T14:50:55;4.63;;;0.68;;
65717;SDS011;52445;52.466;-1.016;2023-07-29T14:53:22;2.58;;;1.75;;
65717;SDS011;52445;52.466;-1.016;2023-07-29T14:55:49;2.47;;;1.88;;
65717;SDS011;52445;52.466;-1.016;2023-07-29T14:58:16;3.60;;;2.25;;